Time;durP1;ratioP1;P1;durP2;ratioP2;P2;SDS_P1;SDS_P2;PMS_P1;PMS_P2;Temp;Humidity;BMP_temperature;BMP_pressure;BME280_temperature;BME280_humidity;BME280_pressure;Samples;Min_cycle;Max_cycle;Signal;HPM_P1;HPM_P2
2021/11/19 03:21:31;;;;;;;26.97;13.37;;;;;;;;;;6262646;22;20219;-89
2021/11/19 03:24:43;;;;;;;26.17;12.80;;;;;;;;;;6245103;22;20237;-91
2021/11/19 03:27:57;;;;;;;29.07;12.63;;;;;;;;;;6248080;23;20182;-92
2021/11/19 03:31:14;;;;;;;24.93;13.00;;;;;;;;;;6247563;23;20202;-90
2021/11/19 03:34:26;;;;;;;30.13;14.00;;;;;;;;;;6246544;23;20215;-90
2021/11/19 03:37:39;;;;;;;28.10;14.20;;;;;;;;;;6246579;23;20171;-90
2021/11/19 03:40:52;;;;;;;28.93;14.33;;;;;;;;;;6245937;23;20178;-92
2021/11/19 03:44:05;;;;;;;27.77;13.73;;;;;;;;;;6245497;23;20230;-91
2021/11/19 03:47:18;;;;;;;30.27;13.40;;;;;;;;;;6244731;22;20616;-93
2021/11/19 03:50:33;;;;;;;27.67;13.13;;;;;;;;;;6243728;23;20182;-91
2021/11/19 03:53:47;;;;;;;25.63;13.27;;;;;;;;;;6244265;22;20235;-91
2021/11/19 03:57:01;;;;;;;29.90;14.40;;;;;;;;;;6245081;23;20167;-92
2021/11/19 04:00:15;;;;;;;28.83;14.23;;;;;;;;;;6244200;23;20221;-92
2021/11/19 04:03:32;;;;;;;27.43;13.10;;;;;;;;;;6245259;23;20205;-91
2021/11/19 04:06:45;;;;;;;29.77;14.23;;;;;;;;;;6243767;23;20178;-92
2021/11/19 04:09:59;;;;;;;26.63;13.70;;;;;;;;;;6246271;22;20165;-89
2021/11/19 04:13:11;;;;;;;33.03;14.50;;;;;;;;;;6244884;23;20256;-90
2021/11/19 04:16:25;;;;;;;35.50;14.87;;;;;;;;;;6244896;22;20174;-90
2021/11/19 04:19:36;;;;;;;27.83;14.13;;;;;;;;;;6246330;22;20169;-92
2021/11/19 04:22:48;;;;;;;30.33;13.83;;;;;;;;;;6247033;22;20255;-92
2021/11/19 04:26:03;;;;;;;28.67;14.03;;;;;;;;;;6246002;23;20182;-89
2021/11/19 04:29:15;;;;;;;27.20;13.73;;;;;;;;;;6244758;22;20175;-91
2021/11/19 04:32:37;;;;;;;26.83;13.77;;;;;;;;;;6245814;23;20166;-89
2021/11/19 04:35:52;;;;;;;27.47;13.43;;;;;;;;;;6229228;23;20261;-90
2021/11/19 04:39:04;;;;;;;30.37;13.50;;;;;;;;;;6246077;23;20177;-89
2021/11/19 04:42:18;;;;;;;28.93;14.10;;;;;;;;;;6248110;23;20174;-89
2021/11/19 04:45:31;;;;;;;28.10;12.90;;;;;;;;;;6244999;23;20170;-91
2021/11/19 04:48:43;;;;;;;29.17;13.33;;;;;;;;;;6245055;23;20218;-91
2021/11/19 04:51:54;;;;;;;25.27;12.77;;;;;;;;;;6244513;23;20504;-91
2021/11/19 04:55:08;;;;;;;28.87;13.17;;;;;;;;;;6245848;23;20246;-90
2021/11/19 04:58:22;;;;;;;29.83;13.67;;;;;;;;;;6247581;23;20175;-90
2021/11/19 05:01:55;;;;;;;29.30;13.40;;;;;;;;;;6244582;22;20162;-91
2021/11/19 05:05:28;;;;;;;31.43;13.20;;;;;;;;;;6244081;23;20166;-90
2021/11/19 05:08:40;;;;;;;31.17;13.17;;;;;;;;;;6244846;23;20237;-89
2021/11/19 05:11:53;;;;;;;25.87;12.93;;;;;;;;;;6244931;23;20170;-89
2021/11/19 05:15:08;;;;;;;29.50;13.07;;;;;;;;;;6246622;23;20182;-90
2021/11/19 05:18:20;;;;;;;26.93;12.93;;;;;;;;;;6247402;23;20174;-90
2021/11/19 05:21:32;;;;;;;30.20;14.53;;;;;;;;;;6245532;23;20260;-90
2021/11/19 05:24:44;;;;;;;28.70;14.40;;;;;;;;;;6245401;23;20193;-89
2021/11/19 05:27:57;;;;;;;31.80;14.00;;;;;;;;;;6246534;22;20230;-90
2021/11/19 05:31:11;;;;;;;31.20;14.10;;;;;;;;;;6245890;22;20270;-90
2021/11/19 05:34:29;;;;;;;30.40;14.40;;;;;;;;;;6248230;23;20329;-89
2021/11/19 05:37:41;;;;;;;32.27;15.03;;;;;;;;;;6245220;23;20245;-89
2021/11/19 05:40:54;;;;;;;36.67;16.57;;;;;;;;;;6246338;22;20194;-91
2021/11/19 05:44:09;;;;;;;35.67;15.17;;;;;;;;;;6245803;23;20271;-89
2021/11/19 05:47:54;;;;;;;31.60;14.63;;;;;;;;;;6225844;23;20191;-89
2021/11/19 05:51:08;;;;;;;36.33;15.67;;;;;;;;;;6246269;23;20178;-91
2021/11/19 05:54:21;;;;;;;37.60;14.43;;;;;;;;;;6244711;23;20173;-91
2021/11/19 05:57:33;;;;;;;32.57;14.53;;;;;;;;;;6245108;23;20171;-90
2021/11/19 06:00:52;;;;;;;31.90;13.57;;;;;;;;;;6245046;23;20165;-92
2021/11/19 06:04:17;;;;;;;29.83;14.50;;;;;;;;;;6246064;23;20198;-90
2021/11/19 06:08:07;;;;;;;25.67;12.47;;;;;;;;;;6264150;23;20170;-90
2021/11/19 06:11:21;;;;;;;32.33;14.53;;;;;;;;;;6246536;23;20170;-90
2021/11/19 06:14:35;;;;;;;29.77;14.37;;;;;;;;;;6245234;23;20159;-89
2021/11/19 06:17:53;;;;;;;35.93;15.90;;;;;;;;;;6247274;23;20583;-90
2021/11/19 06:21:08;;;;;;;30.80;13.93;;;;;;;;;;6246832;23;20250;-90
2021/11/19 06:24:21;;;;;;;32.50;14.13;;;;;;;;;;6245373;23;20241;-88
2021/11/19 06:27:36;;;;;;;38.10;15.33;;;;;;;;;;6245553;23;20169;-91
2021/11/19 06:30:48;;;;;;;34.50;15.17;;;;;;;;;;6245610;23;20175;-89
2021/11/19 06:33:59;;;;;;;38.10;14.47;;;;;;;;;;6244331;22;20245;-89
2021/11/19 06:37:13;;;;;;;31.97;15.17;;;;;;;;;;6245297;23;20198;-90
2021/11/19 06:40:34;;;;;;;29.73;13.53;;;;;;;;;;6245649;23;20162;-91
2021/11/19 06:44:13;;;;;;;33.97;15.40;;;;;;;;;;6253054;23;20601;-88
2021/11/19 06:48:03;;;;;;;33.07;14.43;;;;;;;;;;6265747;23;20163;-89
2021/11/19 06:51:36;;;;;;;28.20;13.90;;;;;;;;;;6265333;22;20171;-91
2021/11/19 06:55:11;;;;;;;31.87;14.73;;;;;;;;;;6266732;22;20162;-90
2021/11/19 06:58:38;;;;;;;31.03;13.43;;;;;;;;;;6246433;23;20573;-90
2021/11/19 07:01:54;;;;;;;32.33;13.80;;;;;;;;;;6245732;23;20190;-90
2021/11/19 07:08:35;;;;;;;33.50;15.03;;;;;;;;;;6247141;23;20194;-92
2021/11/19 07:11:49;;;;;;;31.50;14.80;;;;;;;;;;6245027;23;20217;-90
2021/11/19 07:15:01;;;;;;;32.37;14.33;;;;;;;;;;6244381;23;20175;-90
2021/11/19 07:18:14;;;;;;;27.03;12.43;;;;;;;;;;6247525;23;20175;-89
2021/11/19 07:21:31;;;;;;;32.70;14.80;;;;;;;;;;6250334;23;20190;-90
2021/11/19 07:24:44;;;;;;;35.90;14.70;;;;;;;;;;6247973;23;20210;-91
2021/11/19 07:28:01;;;;;;;30.50;12.60;;;;;;;;;;6247130;23;20194;-90
2021/11/19 07:31:14;;;;;;;33.13;13.87;;;;;;;;;;6246517;23;20219;-92
2021/11/19 07:38:31;;;;;;;31.37;13.37;;;;;;;;;;6264265;22;20167;-90
2021/11/19 07:42:10;;;;;;;33.27;13.53;;;;;;;;;;6267165;22;20202;-90
2021/11/19 07:45:37;;;;;;;32.30;14.40;;;;;;;;;;6265660;22;20266;-90
2021/11/19 07:49:06;;;;;;;35.60;14.37;;;;;;;;;;6247770;22;20163;-91
2021/11/19 07:52:19;;;;;;;33.00;13.47;;;;;;;;;;6247590;23;20229;-91
2021/11/19 07:55:37;;;;;;;35.63;13.80;;;;;;;;;;6249694;23;20666;-90
2021/11/19 07:58:49;;;;;;;31.20;14.37;;;;;;;;;;6246320;22;20214;-91
2021/11/19 08:02:04;;;;;;;30.13;14.77;;;;;;;;;;6245624;23;20155;-89
2021/11/19 08:05:17;;;;;;;38.40;14.80;;;;;;;;;;6246576;23;20273;-92
2021/11/19 08:08:49;;;;;;;41.43;15.13;;;;;;;;;;6249228;22;20161;-89
2021/11/19 08:12:05;;;;;;;30.27;14.53;;;;;;;;;;6244139;23;20178;-89
2021/11/19 08:15:19;;;;;;;32.97;14.53;;;;;;;;;;6246448;23;20590;-90
2021/11/19 08:18:34;;;;;;;29.87;14.27;;;;;;;;;;6244834;23;20166;-90
2021/11/19 08:21:45;;;;;;;39.17;15.13;;;;;;;;;;6246050;23;20554;-91
2021/11/19 08:24:58;;;;;;;35.37;15.07;;;;;;;;;;6246191;23;20189;-91
2021/11/19 08:28:11;;;;;;;35.63;15.77;;;;;;;;;;6247158;23;20276;-91
2021/11/19 08:31:25;;;;;;;40.03;16.30;;;;;;;;;;6248241;22;20197;-91
2021/11/19 08:41:36;;;;;;;34.10;15.23;;;;;;;;;;6252118;23;20185;-89
2021/11/19 08:44:51;;;;;;;38.73;15.50;;;;;;;;;;6252876;23;20197;-89
2021/11/19 08:48:04;;;;;;;49.03;17.43;;;;;;;;;;6252626;23;20194;-91
2021/11/19 08:51:21;;;;;;;32.43;15.77;;;;;;;;;;6250966;23;20190;-88
2021/11/19 08:54:33;;;;;;;39.13;15.87;;;;;;;;;;6252453;23;20171;-92
2021/11/19 08:57:48;;;;;;;33.33;14.30;;;;;;;;;;6252291;23;20166;-92
2021/11/19 09:01:02;;;;;;;35.27;15.53;;;;;;;;;;6251588;22;20200;-91
2021/11/19 09:04:18;;;;;;;35.23;15.90;;;;;;;;;;6252154;23;20182;-89
2021/11/19 09:07:51;;;;;;;31.53;15.10;;;;;;;;;;6253074;23;20255;-90
2021/11/19 13:25:58;;;;;;;43.13;17.37;;;;;;;;;;6251575;23;20225;-90
2021/11/19 13:29:27;;;;;;;51.83;17.10;;;;;;;;;;6251323;23;20223;-88
2021/11/19 13:32:52;;;;;;;47.10;18.37;;;;;;;;;;6249836;23;20170;-90
2021/11/19 13:36:27;;;;;;;47.03;18.13;;;;;;;;;;6251816;23;20529;-90
2021/11/19 13:39:41;;;;;;;47.10;18.80;;;;;;;;;;6250554;23;20154;-90
2021/11/19 13:42:58;;;;;;;43.90;17.60;;;;;;;;;;6250693;23;20167;-89
2021/11/19 13:46:42;;;;;;;43.63;17.85;;;;;;;;;;6248892;23;20205;-90
2021/11/19 13:50:02;;;;;;;46.00;16.97;;;;;;;;;;6248160;23;20209;-89
2021/11/19 13:53:18;;;;;;;48.90;17.70;;;;;;;;;;6247622;23;20245;-90
2021/11/19 13:56:39;;;;;;;54.50;18.53;;;;;;;;;;6247576;23;20167;-89
2021/11/19 13:59:56;;;;;;;48.93;17.90;;;;;;;;;;6250025;23;20230;-91
2021/11/19 14:03:14;;;;;;;48.30;18.17;;;;;;;;;;6246502;23;20223;-90
2021/11/19 14:11:00;;;;;;;45.37;17.87;;;;;;;;;;6264273;23;20186;-88
2021/11/19 14:14:17;;;;;;;56.47;18.93;;;;;;;;;;6249041;23;20170;-89
2021/11/19 14:17:34;;;;;;;52.43;18.63;;;;;;;;;;6247034;23;20211;-91
2021/11/19 14:24:22;;;;;;;57.63;19.07;;;;;;;;;;6247473;23;20167;-92
2021/11/19 14:27:41;;;;;;;47.77;18.30;;;;;;;;;;6247421;23;20171;-91
2021/11/19 14:30:53;;;;;;;50.97;19.03;;;;;;;;;;6248379;22;20194;-89
2021/11/19 14:34:16;;;;;;;56.47;18.70;;;;;;;;;;6247682;23;20166;-88
2021/11/19 14:37:31;;;;;;;60.60;21.23;;;;;;;;;;6248975;23;20209;-88
2021/11/19 14:40:47;;;;;;;46.57;19.37;;;;;;;;;;6251070;22;20171;-88
2021/11/19 14:44:01;;;;;;;55.27;21.63;;;;;;;;;;6247943;23;20225;-90
2021/11/19 14:47:16;;;;;;;53.27;19.00;;;;;;;;;;6264088;22;20301;-91
2021/11/19 14:54:03;;;;;;;47.50;18.03;;;;;;;;;;6251191;22;20170;-88
2021/11/19 14:57:31;;;;;;;47.40;19.73;;;;;;;;;;6248790;23;20178;-90
2021/11/19 15:00:48;;;;;;;53.60;19.63;;;;;;;;;;6231249;23;20194;-89
2021/11/19 15:04:02;;;;;;;51.97;19.83;;;;;;;;;;6249762;22;20286;-90
2021/11/19 15:07:44;;;;;;;54.83;20.60;;;;;;;;;;6245862;23;20166;-91
2021/11/19 15:11:05;;;;;;;51.80;19.93;;;;;;;;;;6218521;23;20251;-91
2021/11/19 15:14:34;;;;;;;57.83;18.83;;;;;;;;;;6247330;22;20222;-89
2021/11/19 15:17:51;;;;;;;54.13;22.70;;;;;;;;;;6250015;23;20166;-94
2021/11/19 15:21:11;;;;;;;53.60;22.55;;;;;;;;;;6248653;23;20180;-88
2021/11/19 15:24:31;;;;;;;49.90;19.42;;;;;;;;;;6250644;23;20174;-90
2021/11/19 15:27:49;;;;;;;58.45;19.05;;;;;;;;;;6249385;23;20220;-88
2021/11/19 15:31:25;;;;;;;56.03;20.60;;;;;;;;;;6251846;23;20166;-89
2021/11/19 15:34:50;;;;;;;47.55;19.30;;;;;;;;;;6251069;22;20216;-90
2021/11/19 15:38:06;;;;;;;55.88;20.40;;;;;;;;;;6250217;22;20307;-90
2021/11/19 15:44:50;;;;;;;57.00;19.73;;;;;;;;;;6249301;23;20174;-89
2021/11/19 15:48:04;;;;;;;50.97;19.80;;;;;;;;;;6248603;23;20170;-90
2021/11/19 15:51:16;;;;;;;53.57;19.13;;;;;;;;;;6249360;23;20186;-90
2021/11/19 15:54:30;;;;;;;57.15;20.60;;;;;;;;;;6250059;23;20170;-90
2021/11/19 15:57:54;;;;;;;50.83;19.57;;;;;;;;;;6250336;23;20187;-91
2021/11/19 16:05:16;;;;;;;51.73;19.07;;;;;;;;;;6250841;23;20213;-90
2021/11/19 16:08:34;;;;;;;56.03;19.50;;;;;;;;;;6250587;23;20166;-92
2021/11/19 16:11:59;;;;;;;54.30;19.75;;;;;;;;;;6249121;23;20202;-90
2021/11/19 16:15:11;;;;;;;52.20;19.83;;;;;;;;;;6245045;23;20186;-89
2021/11/19 16:18:26;;;;;;;47.43;19.63;;;;;;;;;;6245075;23;20186;-88
2021/11/19 16:21:39;;;;;;;63.87;21.33;;;;;;;;;;6244751;23;20193;-90
2021/11/19 16:24:51;;;;;;;51.22;19.30;;;;;;;;;;6245269;23;20171;-89
2021/11/19 16:28:03;;;;;;;61.60;19.77;;;;;;;;;;6248497;23;20158;-89
2021/11/19 18:48:32;;;;;;;53.87;20.07;;;;;;;;;;6203178;22;20230;-88
2021/11/19 18:51:46;;;;;;;58.97;22.53;;;;;;;;;;6242228;23;20174;-90
2021/11/19 18:54:59;;;;;;;63.70;23.37;;;;;;;;;;6242862;22;20282;-89
2021/11/19 18:58:15;;;;;;;54.73;22.37;;;;;;;;;;6245525;23;20526;-89
2021/11/19 19:01:28;;;;;;;81.93;34.07;;;;;;;;;;6244410;23;20179;-91
2021/11/19 19:04:44;;;;;;;59.83;22.67;;;;;;;;;;6244253;23;20175;-90
2021/11/19 19:14:48;;;;;;;50.65;20.65;;;;;;;;;;6246037;23;20237;-91
2021/11/19 19:18:00;;;;;;;44.50;18.23;;;;;;;;;;6246867;23;20218;-91
2021/11/19 19:21:14;;;;;;;49.97;19.02;;;;;;;;;;6245139;23;20178;-91
2021/11/19 19:24:27;;;;;;;43.30;18.80;;;;;;;;;;6245378;23;20166;-90
2021/11/19 19:27:40;;;;;;;45.95;19.05;;;;;;;;;;6245468;23;20174;-90
2021/11/19 19:30:57;;;;;;;46.23;17.93;;;;;;;;;;6244191;23;20173;-92
2021/11/19 19:34:13;;;;;;;51.13;18.58;;;;;;;;;;6246706;23;20357;-91
2021/11/19 19:37:38;;;;;;;45.30;18.10;;;;;;;;;;6243898;23;20174;-91
2021/11/19 19:40:52;;;;;;;66.80;25.05;;;;;;;;;;6244147;23;20182;-92
2021/11/19 19:44:05;;;;;;;56.25;20.38;;;;;;;;;;6243163;23;20170;-91
2021/11/19 19:47:18;;;;;;;44.45;18.63;;;;;;;;;;6242514;23;20217;-93
2021/11/19 19:50:31;;;;;;;43.65;18.65;;;;;;;;;;6242757;23;20169;-91
2021/11/19 19:53:46;;;;;;;46.30;18.45;;;;;;;;;;6241871;23;20173;-90
2021/11/19 19:56:57;;;;;;;45.95;16.95;;;;;;;;;;6242089;23;20166;-91
2021/11/19 20:00:10;;;;;;;44.55;18.33;;;;;;;;;;6243847;23;20182;-90
2021/11/19 20:03:26;;;;;;;46.63;17.88;;;;;;;;;;6261060;22;20163;-90
2021/11/19 20:11:14;;;;;;;40.13;16.27;;;;;;;;;;6261175;23;20597;-89
2021/11/19 20:14:28;;;;;;;44.88;18.42;;;;;;;;;;6244747;23;20223;-90
2021/11/19 20:17:41;;;;;;;44.20;18.40;;;;;;;;;;6242548;22;20298;-91
2021/11/19 20:20:55;;;;;;;41.83;17.63;;;;;;;;;;6243759;23;20202;-90
2021/11/19 20:24:07;;;;;;;42.63;16.73;;;;;;;;;;6242790;23;20527;-90
2021/11/19 20:27:24;;;;;;;41.08;16.00;;;;;;;;;;6243821;23;20198;-88
2021/11/19 20:30:38;;;;;;;42.55;15.45;;;;;;;;;;6241636;23;20182;-91
2021/11/19 20:33:52;;;;;;;40.53;15.87;;;;;;;;;;6244391;23;20198;-88
2021/11/19 20:37:05;;;;;;;43.45;16.10;;;;;;;;;;6247580;23;20163;-89
2021/11/19 20:40:18;;;;;;;37.83;16.70;;;;;;;;;;6229562;23;20800;-87
2021/11/19 20:43:35;;;;;;;45.65;16.02;;;;;;;;;;6249024;23;20218;-91
2021/11/19 20:46:50;;;;;;;40.17;15.93;;;;;;;;;;6247800;22;20330;-90
2021/11/19 20:50:04;;;;;;;49.05;16.25;;;;;;;;;;6249115;22;20154;-90
2021/11/19 20:53:17;;;;;;;34.55;15.73;;;;;;;;;;6247822;23;20165;-89
2021/11/19 20:56:36;;;;;;;39.97;17.90;;;;;;;;;;6244379;23;20170;-91
2021/11/19 20:59:56;;;;;;;41.72;16.88;;;;;;;;;;6246822;22;20171;-89
2021/11/19 21:03:08;;;;;;;42.95;16.35;;;;;;;;;;6245971;23;20203;-90
2021/11/19 21:06:22;;;;;;;36.63;14.67;;;;;;;;;;6246055;23;20242;-90
2021/11/19 21:09:36;;;;;;;42.90;16.50;;;;;;;;;;6244457;23;20173;-89
2021/11/19 21:12:50;;;;;;;44.20;17.43;;;;;;;;;;6247675;22;20174;-89
2021/11/19 21:16:05;;;;;;;47.17;17.55;;;;;;;;;;6248875;22;20171;-91
2021/11/19 21:19:17;;;;;;;39.13;16.35;;;;;;;;;;6247587;23;20171;-92
2021/11/19 21:22:31;;;;;;;38.10;16.38;;;;;;;;;;6248523;23;20167;-90
2021/11/19 21:25:45;;;;;;;45.03;18.23;;;;;;;;;;6248155;23;20198;-90
2021/11/19 21:28:59;;;;;;;44.05;17.92;;;;;;;;;;6247187;23;20236;-89
2021/11/19 22:02:06;;;;;;;38.00;16.48;;;;;;;;;;6161078;22;20411;-89
2021/11/19 22:05:20;;;;;;;38.50;16.67;;;;;;;;;;6245800;23;20166;-90
2021/11/19 22:08:32;;;;;;;40.63;17.23;;;;;;;;;;6245897;23;20235;-89
2021/11/19 22:11:45;;;;;;;43.33;17.58;;;;;;;;;;6242504;22;20218;-90
2021/11/19 22:15:00;;;;;;;38.35;17.15;;;;;;;;;;6244689;22;20182;-91
2021/11/19 22:18:17;;;;;;;44.47;17.85;;;;;;;;;;6246678;23;20182;-91
2021/11/19 22:21:30;;;;;;;43.55;17.77;;;;;;;;;;6245121;23;20213;-90
2021/11/19 22:24:43;;;;;;;46.83;19.50;;;;;;;;;;6243019;23;20170;-89
2021/11/19 22:27:57;;;;;;;45.67;18.63;;;;;;;;;;6242844;23;20218;-90
2021/11/19 22:31:10;;;;;;;46.05;20.08;;;;;;;;;;6244717;23;20212;-89
2021/11/19 22:34:25;;;;;;;45.97;18.77;;;;;;;;;;6244371;23;20171;-90
2021/11/19 22:37:37;;;;;;;44.42;18.83;;;;;;;;;;6242139;23;20162;-86
2021/11/19 22:40:51;;;;;;;49.75;18.90;;;;;;;;;;6240960;23;20170;-88
2021/11/19 22:44:03;;;;;;;49.80;19.65;;;;;;;;;;6242174;23;20222;-88
2021/11/19 22:47:16;;;;;;;49.25;19.67;;;;;;;;;;6242093;23;20237;-90
2021/11/19 22:50:35;;;;;;;60.47;21.05;;;;;;;;;;6242021;23;20202;-89
2021/11/19 22:53:49;;;;;;;62.30;22.60;;;;;;;;;;6243238;23;20185;-89
2021/11/19 22:57:03;;;;;;;52.40;21.33;;;;;;;;;;6242182;23;20162;-90
2021/11/19 23:00:17;;;;;;;56.87;23.27;;;;;;;;;;6242796;22;20194;-90
2021/11/19 23:03:31;;;;;;;54.30;20.57;;;;;;;;;;6241612;23;20256;-90
2021/11/19 23:06:45;;;;;;;52.67;20.48;;;;;;;;;;6241804;23;20194;-89
2021/11/19 23:09:59;;;;;;;53.80;20.48;;;;;;;;;;6243349;23;20178;-92
2021/11/19 23:13:11;;;;;;;47.10;19.63;;;;;;;;;;6242363;23;20171;-89
2021/11/19 23:16:24;;;;;;;56.90;20.70;;;;;;;;;;6240586;23;20166;-90
2021/11/19 23:19:37;;;;;;;48.92;20.38;;;;;;;;;;6240140;23;20174;-90
2021/11/19 23:22:51;;;;;;;43.78;18.92;;;;;;;;;;6241249;23;20245;-91
2021/11/19 23:26:04;;;;;;;46.33;19.27;;;;;;;;;;6242143;23;20162;-90
2021/11/19 23:29:19;;;;;;;43.95;18.80;;;;;;;;;;6239190;23;20240;-90
2021/11/19 23:32:33;;;;;;;43.60;19.02;;;;;;;;;;6242240;23;20207;-89
2021/11/19 23:35:47;;;;;;;47.47;19.73;;;;;;;;;;6239703;23;20178;-88
2021/11/19 23:39:01;;;;;;;45.57;19.47;;;;;;;;;;6255692;23;20286;-89
2021/11/19 23:42:18;;;;;;;55.10;21.40;;;;;;;;;;6241662;23;20225;-90
2021/11/19 23:45:33;;;;;;;58.42;20.80;;;;;;;;;;6240041;23;20709;-90
2021/11/19 23:48:45;;;;;;;57.77;21.50;;;;;;;;;;6239456;23;20238;-88
2021/11/19 23:51:57;;;;;;;50.67;21.17;;;;;;;;;;6238707;23;20178;-89
2021/11/19 23:55:12;;;;;;;49.07;19.37;;;;;;;;;;6240982;23;20219;-91
2021/11/19 23:58:24;;;;;;;51.17;20.50;;;;;;;;;;6240327;23;20217;-89
